createdAt,value
2022-08-31T00:00:38.671Z,10.35
2022-08-31T00:01:38.382Z,10.38
2022-08-31T00:02:37.985Z,10.41
2022-08-31T00:03:39.068Z,10.42
2022-08-31T00:04:38.456Z,10.34
2022-08-31T00:05:38.661Z,10.31
2022-08-31T00:06:39.906Z,10.26
2022-08-31T00:07:40.368Z,10.25
2022-08-31T00:08:38.564Z,10.28
2022-08-31T00:09:38.864Z,10.33
2022-08-31T00:10:39.173Z,10.31
2022-08-31T00:11:41.351Z,10.33
2022-08-31T00:12:39.857Z,10.30
2022-08-31T00:13:40.192Z,10.23
2022-08-31T00:14:42.376Z,10.22
2022-08-31T00:15:40.761Z,10.30
2022-08-31T00:16:43.022Z,10.25
2022-08-31T00:17:42.140Z,10.30
2022-08-31T00:18:43.327Z,10.28
2022-08-31T00:19:44.001Z,10.25
2022-08-31T00:20:44.192Z,10.26
2022-08-31T00:21:42.764Z,10.23
2022-08-31T00:22:44.881Z,10.22
2022-08-31T00:23:45.054Z,10.19
2022-08-31T00:24:45.245Z,10.16
2022-08-31T00:25:45.396Z,10.13
2022-08-31T00:26:46.100Z,10.09
2022-08-31T00:27:44.490Z,10.07
2022-08-31T00:28:45.688Z,9.98
2022-08-31T00:29:46.842Z,9.95
2022-08-31T00:30:46.036Z,9.91
2022-08-31T00:31:47.303Z,9.79
2022-08-31T00:32:47.422Z,9.73
2022-08-31T00:33:46.163Z,9.66
2022-08-31T00:34:47.394Z,9.56
2022-08-31T00:35:48.737Z,9.48
2022-08-31T00:36:47.000Z,9.48
2022-08-31T00:37:47.300Z,9.54
2022-08-31T00:38:47.606Z,9.55
2022-08-31T00:39:48.706Z,9.51
2022-08-31T00:40:50.177Z,9.47
2022-08-31T00:41:48.531Z,9.47
2022-08-31T00:42:48.836Z,9.44
2022-08-31T00:43:49.138Z,9.44
2022-08-31T00:44:50.272Z,9.46
2022-08-31T00:45:51.729Z,9.47
2022-08-31T00:46:50.070Z,9.47
2022-08-31T00:47:52.257Z,9.51
2022-08-31T00:48:50.629Z,9.50
2022-08-31T00:49:54.813Z,9.51
2022-08-31T00:50:53.056Z,9.58
2022-08-31T00:51:53.331Z,9.62
2022-08-31T00:52:53.471Z,9.68
2022-08-31T00:53:52.106Z,9.77
2022-08-31T00:54:55.466Z,9.83
2022-08-31T00:55:54.521Z,9.84
2022-08-31T00:56:53.035Z,9.86
2022-08-31T00:57:55.217Z,9.83
2022-08-31T00:58:54.647Z,9.83
2022-08-31T00:59:57.769Z,9.77
2022-08-31T01:00:56.023Z,9.77
2022-08-31T01:01:56.240Z,9.77
2022-08-31T01:02:54.826Z,9.76
2022-08-31T01:03:55.126Z,9.77
2022-08-31T01:04:56.292Z,9.72
2022-08-31T01:05:57.635Z,9.61
2022-08-31T01:06:55.898Z,9.58
2022-08-31T01:07:56.197Z,9.56
2022-08-31T01:08:56.511Z,9.62
2022-08-31T01:09:57.603Z,9.66
2022-08-31T01:10:57.119Z,9.66
2022-08-31T01:11:59.284Z,9.64
2022-08-31T01:12:57.665Z,9.59
2022-08-31T01:13:57.933Z,9.65
2022-08-31T01:14:59.170Z,9.73
2022-08-31T01:15:58.630Z,9.74
2022-08-31T01:17:00.729Z,9.74
2022-08-31T01:17:59.109Z,9.83
2022-08-31T01:18:59.406Z,9.87
2022-08-31T01:20:00.760Z,9.80
2022-08-31T01:20:59.983Z,9.84
2022-08-31T01:22:00.285Z,9.91
2022-08-31T01:23:02.478Z,9.92
2022-08-31T01:24:02.670Z,9.89
2022-08-31T01:25:04.851Z,9.86
2022-08-31T01:26:01.534Z,9.83
2022-08-31T01:27:01.840Z,9.80
2022-08-31T01:28:04.013Z,9.79
2022-08-31T01:29:04.198Z,9.73
2022-08-31T01:30:04.379Z,9.68
2022-08-31T01:31:03.010Z,9.66
2022-08-31T01:32:06.649Z,9.65
2022-08-31T01:33:05.377Z,9.59
2022-08-31T01:34:03.871Z,9.54
2022-08-31T01:35:06.071Z,9.50
2022-08-31T01:36:06.370Z,9.44
2022-08-31T01:37:05.771Z,9.34
2022-08-31T01:38:08.393Z,9.19
2022-08-31T01:39:08.624Z,9.14
2022-08-31T01:40:08.821Z,9.14
2022-08-31T01:41:07.505Z,9.10
2022-08-31T01:42:06.249Z,9.10
2022-08-31T01:43:07.492Z,9.04
2022-08-31T01:44:06.857Z,9.04
2022-08-31T01:45:07.168Z,9.02
2022-08-31T01:46:09.346Z,9.02
2022-08-31T01:47:07.753Z,9.03
2022-08-31T01:48:09.924Z,9.08
2022-08-31T01:49:08.302Z,9.14
2022-08-31T01:50:08.601Z,9.18
2022-08-31T01:51:12.393Z,9.25
2022-08-31T01:52:09.956Z,9.31
2022-08-31T01:53:10.374Z,9.37
2022-08-31T01:54:11.634Z,9.44
2022-08-31T01:55:11.821Z,9.51
2022-08-31T01:56:11.365Z,9.55
2022-08-31T01:57:12.514Z,9.58
2022-08-31T01:58:11.681Z,9.58
2022-08-31T01:59:13.063Z,9.58
2022-08-31T02:00:13.245Z,9.58
2022-08-31T02:01:34.404Z,9.59
2022-08-31T02:02:13.128Z,9.61
2022-08-31T02:03:12.323Z,9.56
2022-08-31T02:04:14.505Z,9.58
2022-08-31T02:05:14.694Z,9.54
2022-08-31T02:06:13.205Z,9.56
2022-08-31T02:07:13.514Z,9.55
2022-08-31T02:08:15.671Z,9.54
2022-08-31T02:09:15.865Z,9.59
2022-08-31T02:10:16.025Z,9.59
2022-08-31T02:11:15.556Z,9.62
2022-08-31T02:12:14.927Z,9.65
2022-08-31T02:13:15.233Z,9.69
2022-08-31T02:14:17.442Z,9.74
2022-08-31T02:15:17.731Z,9.74
2022-08-31T02:16:16.222Z,9.77
2022-08-31T02:17:16.395Z,9.79
2022-08-31T02:18:16.696Z,9.77
2022-08-31T02:19:18.895Z,9.82
2022-08-31T02:20:17.261Z,9.82
2022-08-31T02:21:17.601Z,9.84
2022-08-31T02:22:17.866Z,9.83
2022-08-31T02:23:20.095Z,9.82
2022-08-31T02:24:20.203Z,9.80
2022-08-31T02:25:22.377Z,9.79
2022-08-31T02:26:19.153Z,9.76
2022-08-31T02:27:21.357Z,9.76
2022-08-31T02:28:21.531Z,9.79
2022-08-31T02:29:21.732Z,9.77
2022-08-31T02:30:21.906Z,9.73
2022-08-31T02:31:20.699Z,9.73
2022-08-31T02:32:22.839Z,9.72
2022-08-31T02:33:22.993Z,9.66
2022-08-31T02:34:23.180Z,9.62
2022-08-31T02:35:24.850Z,9.65
2022-08-31T02:36:22.234Z,9.72
2022-08-31T02:37:22.555Z,9.73
2022-08-31T02:38:22.864Z,9.74
2022-08-31T02:39:25.046Z,9.74
2022-08-31T02:40:23.478Z,9.72
2022-08-31T02:41:25.584Z,9.72
2022-08-31T02:42:23.961Z,9.72
2022-08-31T02:43:24.903Z,9.66
2022-08-31T02:44:26.445Z,9.69
2022-08-31T02:45:24.830Z,9.68
2022-08-31T02:46:25.182Z,9.64
2022-08-31T02:47:25.448Z,9.64
2022-08-31T02:48:25.750Z,9.58
2022-08-31T02:49:27.928Z,9.56
2022-08-31T02:50:26.305Z,9.58
2022-08-31T02:51:26.603Z,9.55
2022-08-31T02:52:26.898Z,9.54
2022-08-31T02:53:27.225Z,9.58
2022-08-31T02:54:27.518Z,9.62
2022-08-31T02:55:28.216Z,9.66
2022-08-31T02:56:28.060Z,9.72
2022-08-31T02:57:30.250Z,9.69
2022-08-31T02:58:28.641Z,9.65
2022-08-31T02:59:30.817Z,9.68
2022-08-31T03:00:32.961Z,9.65
2022-08-31T03:01:29.581Z,9.64
2022-08-31T03:02:32.330Z,9.66
2022-08-31T03:03:31.880Z,9.61
2022-08-31T03:04:30.259Z,9.56
2022-08-31T03:05:34.472Z,9.55
2022-08-31T03:06:30.903Z,9.54
2022-08-31T03:11:18.582Z,9.76
2022-08-31T03:12:18.877Z,9.73
2022-08-31T03:13:21.089Z,9.74
2022-08-31T03:14:19.606Z,9.69
2022-08-31T03:15:20.675Z,9.68
2022-08-31T03:16:20.123Z,9.66
2022-08-31T03:17:20.287Z,9.65
2022-08-31T03:18:23.960Z,9.64
2022-08-31T03:19:20.867Z,9.58
2022-08-31T03:20:21.173Z,9.55
2022-08-31T03:21:22.192Z,9.51
2022-08-31T03:22:21.809Z,9.50
2022-08-31T03:23:24.804Z,9.47
2022-08-31T03:24:22.460Z,9.44
2022-08-31T03:25:24.578Z,9.41
2022-08-31T03:26:24.995Z,9.41
2022-08-31T03:27:24.391Z,9.40
2022-08-31T03:28:26.613Z,9.40
2022-08-31T03:29:24.704Z,9.44
2022-08-31T03:30:27.628Z,9.50
2022-08-31T03:31:26.258Z,9.46
2022-08-31T03:32:25.851Z,9.43
2022-08-31T03:33:28.173Z,9.43
2022-08-31T03:34:27.230Z,9.40
2022-08-31T03:35:26.692Z,9.41
2022-08-31T03:36:27.958Z,9.39
2022-08-31T03:37:27.014Z,9.34
2022-08-31T03:38:29.486Z,9.32
2022-08-31T03:39:30.061Z,9.28
2022-08-31T03:40:28.021Z,9.28
2022-08-31T03:41:31.222Z,9.28
2022-08-31T03:42:28.584Z,9.36
2022-08-31T03:43:29.372Z,9.36
2022-08-31T03:44:30.121Z,9.37
2022-08-31T03:45:28.377Z,9.37
2022-08-31T03:46:30.672Z,9.36
2022-08-31T03:47:29.892Z,9.32
2022-08-31T03:48:30.753Z,9.29
2022-08-31T03:49:31.456Z,9.29
2022-08-31T03:50:31.642Z,9.29
2022-08-31T03:51:32.017Z,9.34
2022-08-31T03:52:30.393Z,9.37
2022-08-31T03:53:33.673Z,9.41
2022-08-31T03:54:30.949Z,9.39
2022-08-31T03:55:31.265Z,9.40
2022-08-31T03:56:32.443Z,9.41
2022-08-31T03:57:33.826Z,9.40
2022-08-31T03:58:32.930Z,9.44
2022-08-31T03:59:35.774Z,9.46
2022-08-31T04:00:33.517Z,9.47
2022-08-31T04:01:34.836Z,9.54
2022-08-31T04:02:37.467Z,9.55
2022-08-31T04:03:34.244Z,9.59
2022-08-31T04:04:33.644Z,9.58
2022-08-31T04:05:34.835Z,9.55
2022-08-31T04:06:34.213Z,9.51
2022-08-31T04:07:42.147Z,9.47
2022-08-31T04:08:38.915Z,9.44
2022-08-31T04:09:35.070Z,9.44
2022-08-31T04:10:37.271Z,9.43
2022-08-31T04:11:45.454Z,9.44
2022-08-31T04:12:36.895Z,9.43
2022-08-31T04:13:40.056Z,9.41
2022-08-31T04:14:36.494Z,9.41
2022-08-31T04:15:36.854Z,9.43
2022-08-31T04:16:39.033Z,9.44
2022-08-31T04:17:39.182Z,9.43
2022-08-31T04:18:40.488Z,9.41
2022-08-31T04:19:37.909Z,9.46
2022-08-31T04:20:40.096Z,9.46
2022-08-31T04:21:38.503Z,9.44
2022-08-31T04:22:38.776Z,9.44
2022-08-31T04:23:42.057Z,9.44
2022-08-31T04:24:39.232Z,9.48
2022-08-31T04:25:41.432Z,9.54
2022-08-31T04:26:39.875Z,9.59
2022-08-31T04:27:42.072Z,9.66
2022-08-31T04:28:41.314Z,9.68
2022-08-31T04:29:44.127Z,9.69
2022-08-31T04:30:42.886Z,9.73
2022-08-31T04:31:43.012Z,9.73
2022-08-31T04:32:41.557Z,9.74
2022-08-31T04:33:44.938Z,9.73
2022-08-31T04:34:42.241Z,9.69
2022-08-31T04:35:44.437Z,9.74
2022-08-31T04:36:44.637Z,9.73
2022-08-31T04:37:46.933Z,9.77
2022-08-31T04:38:46.291Z,9.74
2022-08-31T04:39:50.607Z,9.79
2022-08-31T04:40:47.160Z,9.82
2022-08-31T04:41:44.364Z,9.86
2022-08-31T04:42:44.729Z,9.92
2022-08-31T04:43:48.939Z,9.98
2022-08-31T04:44:47.199Z,10.04
2022-08-31T04:45:46.244Z,10.07
2022-08-31T04:46:47.707Z,10.02
2022-08-31T04:47:46.150Z,10.02
2022-08-31T04:48:46.407Z,10.09
2022-08-31T04:49:48.540Z,10.09
2022-08-31T04:50:46.986Z,10.09
2022-08-31T04:51:49.268Z,10.09
2022-08-31T04:52:58.398Z,10.13
2022-08-31T04:53:48.804Z,10.12
2022-08-31T04:54:50.018Z,10.07
2022-08-31T04:55:48.318Z,10.09
2022-08-31T04:56:50.528Z,10.09
2022-08-31T04:57:50.698Z,10.15
2022-08-31T04:58:49.168Z,10.15
2022-08-31T04:59:49.389Z,10.19
2022-08-31T05:00:49.630Z,10.22
2022-08-31T05:01:51.925Z,10.20
2022-08-31T05:02:52.904Z,10.40
2022-08-31T05:03:52.405Z,10.72
2022-08-31T05:04:52.604Z,11.12
2022-08-31T05:05:51.027Z,11.52
2022-08-31T05:06:51.282Z,11.90
2022-08-31T05:07:51.508Z,12.28
2022-08-31T05:08:53.871Z,12.65
2022-08-31T05:09:54.050Z,12.90
2022-08-31T05:10:52.378Z,13.20
2022-08-31T05:11:54.738Z,13.49
2022-08-31T05:12:52.940Z,13.83
2022-08-31T05:13:53.167Z,14.14
2022-08-31T05:14:57.325Z,14.32
2022-08-31T05:15:54.733Z,14.45
2022-08-31T05:16:55.830Z,14.69
2022-08-31T05:17:54.255Z,14.96
2022-08-31T05:18:57.513Z,15.17
2022-08-31T05:19:56.661Z,15.42
2022-08-31T05:20:55.272Z,15.64
2022-08-31T05:21:56.130Z,15.84
2022-08-31T05:22:55.713Z,15.91
2022-08-31T05:23:59.883Z,15.98
2022-08-31T05:24:58.104Z,16.13
2022-08-31T05:25:56.524Z,16.16
2022-08-31T05:26:56.759Z,15.64
2022-08-31T05:27:58.942Z,15.25
2022-08-31T05:28:59.302Z,15.11
2022-08-31T05:29:57.586Z,15.29
2022-08-31T05:30:57.883Z,15.57
2022-08-31T05:31:58.099Z,15.73
2022-08-31T05:33:00.292Z,15.95
2022-08-31T05:34:00.695Z,16.41
2022-08-31T05:35:00.942Z,16.66
2022-08-31T05:36:01.183Z,17.02
2022-08-31T05:36:59.502Z,17.31
2022-08-31T05:38:01.680Z,17.59
2022-08-31T05:39:02.846Z,17.79
2022-08-31T05:40:02.130Z,18.04
2022-08-31T05:41:00.654Z,18.22
2022-08-31T05:42:04.319Z,18.35
2022-08-31T05:43:03.079Z,18.55
2022-08-31T05:44:05.237Z,18.70
2022-08-31T05:45:03.461Z,18.84
2022-08-31T05:46:10.099Z,18.98
2022-08-31T05:47:04.036Z,18.98
2022-08-31T05:48:04.573Z,18.74
2022-08-31T05:49:05.898Z,18.74
2022-08-31T05:50:03.277Z,18.84
2022-08-31T05:51:04.514Z,18.84
2022-08-31T05:52:03.827Z,18.59
2022-08-31T05:53:04.132Z,18.45
2022-08-31T05:54:08.147Z,17.95
2022-08-31T05:55:04.598Z,17.33
2022-08-31T05:56:04.839Z,17.01
2022-08-31T05:57:05.063Z,16.58
2022-08-31T05:58:05.313Z,16.69
2022-08-31T05:59:08.519Z,16.71
2022-08-31T06:00:06.724Z,16.78
2022-08-31T06:01:06.149Z,17.01
2022-08-31T06:02:08.398Z,17.27
2022-08-31T06:03:08.469Z,17.46
2022-08-31T06:04:08.802Z,17.80
2022-08-31T06:05:08.953Z,18.11
2022-08-31T06:06:09.105Z,18.22
2022-08-31T06:07:09.311Z,18.18
2022-08-31T06:08:15.093Z,18.19
2022-08-31T06:09:12.641Z,18.34
2022-08-31T06:10:08.603Z,18.10
2022-08-31T06:11:08.847Z,17.89
2022-08-31T06:12:09.113Z,17.79
2022-08-31T06:13:09.356Z,17.82
2022-08-31T06:14:12.054Z,17.82
2022-08-31T06:15:09.878Z,17.98
2022-08-31T06:16:10.193Z,18.33
2022-08-31T06:17:12.322Z,18.43
2022-08-31T06:18:12.606Z,18.66
2022-08-31T06:19:13.763Z,18.84
2022-08-31T06:20:14.277Z,19.02
2022-08-31T06:21:12.493Z,19.09
2022-08-31T06:22:11.789Z,19.19
2022-08-31T06:23:12.022Z,19.48
2022-08-31T06:24:15.334Z,19.36
2022-08-31T06:25:14.418Z,19.33
2022-08-31T06:26:12.872Z,19.39
2022-08-31T06:27:13.145Z,19.47
2022-08-31T06:28:13.384Z,19.67
2022-08-31T06:29:15.621Z,19.96
2022-08-31T06:30:15.779Z,20.29
2022-08-31T06:31:16.056Z,20.70
2022-08-31T06:32:14.457Z,20.60
2022-08-31T06:33:16.643Z,20.67
2022-08-31T06:34:16.928Z,21.05
2022-08-31T06:35:15.245Z,21.14
2022-08-31T06:36:17.445Z,20.95
2022-08-31T06:37:18.678Z,20.90
2022-08-31T06:38:17.939Z,20.50
2022-08-31T06:39:17.221Z,20.52
2022-08-31T06:40:18.661Z,20.43
2022-08-31T06:41:16.945Z,20.66
2022-08-31T06:42:19.162Z,20.25
2022-08-31T06:43:17.601Z,20.32
2022-08-31T06:44:19.289Z,20.25
2022-08-31T06:45:20.004Z,19.89
2022-08-31T06:46:20.240Z,19.94
2022-08-31T06:47:22.105Z,20.04
2022-08-31T06:48:19.790Z,20.13
2022-08-31T06:49:22.153Z,20.14
2022-08-31T06:50:21.159Z,20.58
2022-08-31T06:51:19.590Z,20.43
2022-08-31T06:52:19.830Z,20.09
2022-08-31T06:53:20.248Z,20.06
2022-08-31T06:54:30.986Z,20.47
2022-08-31T06:55:23.444Z,20.63
2022-08-31T06:56:21.324Z,20.58
2022-08-31T06:57:21.296Z,20.16
2022-08-31T06:58:23.480Z,20.03
2022-08-31T06:59:28.464Z,19.73
2022-08-31T07:00:23.848Z,19.47
2022-08-31T07:01:35.332Z,19.99
2022-08-31T07:02:23.685Z,20.41
2022-08-31T07:03:22.951Z,20.81
2022-08-31T07:04:27.115Z,21.12
2022-08-31T07:05:24.495Z,21.40
2022-08-31T07:06:23.746Z,21.80
2022-08-31T07:07:23.986Z,22.04
2022-08-31T07:08:24.255Z,21.77
2022-08-31T07:09:27.927Z,21.21
2022-08-31T07:10:26.658Z,20.82
2022-08-31T07:11:25.095Z,21.21
2022-08-31T07:12:26.206Z,21.48
2022-08-31T07:13:25.624Z,21.76
2022-08-31T07:14:26.686Z,22.02
2022-08-31T07:15:28.121Z,22.20
2022-08-31T07:16:26.481Z,21.60
2022-08-31T07:17:26.714Z,21.69
2022-08-31T07:18:26.960Z,21.24
2022-08-31T07:19:30.279Z,21.25
2022-08-31T07:20:29.356Z,21.14
2022-08-31T07:21:29.549Z,21.03
2022-08-31T07:22:30.260Z,21.07
2022-08-31T07:23:28.574Z,21.14
2022-08-31T07:24:31.850Z,21.17
2022-08-31T07:25:30.990Z,20.84
2022-08-31T07:26:31.566Z,21.29
2022-08-31T07:27:32.491Z,20.67
2022-08-31T07:28:29.810Z,20.63
2022-08-31T07:29:30.848Z,20.75
2022-08-31T07:30:33.426Z,20.70
2022-08-31T07:31:30.562Z,21.05
2022-08-31T07:32:30.809Z,21.45
2022-08-31T07:33:31.055Z,21.61
2022-08-31T07:34:32.161Z,21.88
2022-08-31T07:35:31.613Z,22.18
2022-08-31T07:36:31.884Z,22.39
2022-08-31T07:37:32.155Z,22.15
2022-08-31T07:38:32.404Z,22.04
2022-08-31T07:39:36.525Z,22.23
2022-08-31T07:40:33.828Z,22.85
2022-08-31T07:41:33.237Z,22.18
2022-08-31T07:42:33.480Z,22.08
2022-08-31T07:43:33.757Z,22.68
2022-08-31T07:44:34.788Z,23.15
2022-08-31T07:45:39.358Z,23.78
2022-08-31T07:46:34.589Z,23.91
2022-08-31T07:47:38.177Z,24.28
2022-08-31T07:48:35.097Z,24.51
2022-08-31T07:49:36.885Z,23.73
2022-08-31T07:50:38.508Z,23.58
2022-08-31T07:51:36.939Z,23.48
2022-08-31T07:52:37.089Z,22.96
2022-08-31T07:53:37.510Z,23.28
2022-08-31T07:54:39.719Z,23.73
2022-08-31T07:55:40.362Z,23.40
2022-08-31T07:56:38.245Z,22.78
2022-08-31T07:57:38.401Z,22.72
2022-08-31T07:58:38.821Z,23.13
2022-08-31T07:59:41.971Z,23.80
2022-08-31T08:00:38.432Z,23.80
2022-08-31T08:01:42.142Z,24.10
2022-08-31T08:02:38.996Z,24.38
2022-08-31T08:03:39.257Z,24.02
2022-08-31T08:04:42.603Z,23.87
2022-08-31T08:05:40.812Z,24.14
2022-08-31T08:06:41.124Z,23.73
2022-08-31T08:07:42.274Z,24.16
2022-08-31T08:08:41.445Z,24.01
2022-08-31T08:09:42.794Z,23.58
2022-08-31T08:10:42.017Z,23.17
2022-08-31T08:11:42.176Z,23.54
2022-08-31T08:12:43.533Z,23.93
2022-08-31T08:13:43.717Z,23.91
2022-08-31T08:14:43.675Z,24.06
2022-08-31T08:15:44.446Z,24.28
2022-08-31T08:16:43.781Z,24.21
2022-08-31T08:17:43.905Z,23.95
2022-08-31T08:18:45.256Z,23.68
2022-08-31T08:19:46.924Z,23.96
2022-08-31T08:20:44.007Z,24.17
2022-08-31T08:21:45.196Z,23.98
2022-08-31T08:22:54.981Z,24.28
2022-08-31T08:23:47.677Z,24.54
2022-08-31T08:24:46.839Z,23.95
2022-08-31T08:25:47.191Z,23.28
2022-08-31T08:26:50.915Z,22.75
2022-08-31T08:27:48.640Z,23.27
2022-08-31T08:28:47.278Z,23.65
2022-08-31T08:29:47.957Z,24.24
2022-08-31T08:30:48.662Z,24.36
2022-08-31T08:31:48.878Z,24.23
2022-08-31T08:32:49.017Z,23.66
2022-08-31T08:33:49.199Z,23.43
2022-08-31T08:34:47.882Z,23.44
2022-08-31T08:35:48.122Z,23.66
2022-08-31T08:36:50.310Z,23.58
2022-08-31T08:37:58.339Z,22.72
2022-08-31T08:38:51.809Z,22.76
2022-08-31T08:39:50.981Z,22.70
2022-08-31T08:40:51.191Z,23.36
2022-08-31T08:41:51.325Z,23.84
2022-08-31T08:42:52.019Z,23.56
2022-08-31T08:43:52.781Z,22.93
2022-08-31T08:44:50.585Z,23.86
2022-08-31T08:45:52.815Z,23.93
2022-08-31T08:46:53.026Z,24.69
2022-08-31T08:47:51.361Z,25.41
2022-08-31T08:48:55.513Z,25.06
2022-08-31T08:49:54.578Z,24.03
2022-08-31T08:50:54.128Z,24.02
2022-08-31T08:51:54.298Z,23.92
2022-08-31T08:52:52.860Z,24.53
2022-08-31T08:53:56.998Z,24.84
2022-08-31T08:54:53.339Z,24.95
2022-08-31T08:55:55.513Z,25.17
2022-08-31T08:56:55.684Z,24.88
2022-08-31T08:57:54.133Z,25.23
2022-08-31T08:58:55.335Z,24.95
2022-08-31T08:59:56.617Z,24.92
2022-08-31T09:00:56.777Z,24.92
2022-08-31T09:01:55.312Z,24.91
2022-08-31T09:02:55.601Z,25.17
2022-08-31T09:03:56.902Z,25.41
2022-08-31T09:04:56.217Z,25.63
2022-08-31T09:05:58.538Z,25.41
2022-08-31T09:06:58.591Z,25.63
2022-08-31T09:07:57.031Z,25.99
2022-08-31T09:08:58.223Z,26.21
2022-08-31T09:09:57.541Z,26.36
2022-08-31T09:10:59.728Z,26.15
2022-08-31T09:11:59.911Z,26.16
2022-08-31T09:12:58.353Z,25.87
2022-08-31T09:13:59.523Z,26.19
2022-08-31T09:14:58.833Z,26.55
2022-08-31T09:15:59.112Z,27.08
2022-08-31T09:17:01.252Z,27.63
2022-08-31T09:18:01.435Z,26.99
2022-08-31T09:19:01.543Z,27.18
2022-08-31T09:20:00.289Z,27.39
2022-08-31T09:21:01.409Z,27.29
2022-08-31T09:22:02.682Z,27.49
2022-08-31T09:23:02.881Z,27.87
2022-08-31T09:24:02.196Z,26.99
2022-08-31T09:25:03.543Z,25.77
2022-08-31T09:26:06.193Z,25.41
2022-08-31T09:27:03.110Z,25.93
2022-08-31T09:28:02.411Z,25.59
2022-08-31T09:29:03.456Z,25.62
2022-08-31T09:30:02.896Z,26.02
2022-08-31T09:31:03.217Z,26.25
2022-08-31T09:32:06.368Z,26.58
2022-08-31T09:33:03.693Z,27.03
2022-08-31T09:34:04.771Z,26.89
2022-08-31T09:35:06.246Z,27.02
2022-08-31T09:36:04.557Z,26.38
2022-08-31T09:37:06.738Z,25.41
2022-08-31T09:38:05.140Z,25.35
2022-08-31T09:39:06.343Z,25.41
2022-08-31T09:40:07.525Z,25.28
2022-08-31T09:41:05.944Z,25.07
2022-08-31T09:42:07.251Z,25.36
2022-08-31T09:43:06.684Z,25.96
2022-08-31T09:44:07.648Z,26.38
2022-08-31T09:45:07.089Z,26.40
2022-08-31T09:46:07.457Z,26.51
2022-08-31T09:47:09.575Z,26.36
2022-08-31T09:48:07.890Z,26.36
2022-08-31T09:49:08.961Z,26.43
2022-08-31T09:50:08.412Z,26.51
2022-08-31T09:51:08.684Z,26.71
2022-08-31T09:52:12.829Z,26.48
2022-08-31T09:53:09.167Z,26.77
2022-08-31T09:54:12.842Z,26.09
2022-08-31T09:55:09.664Z,25.65
2022-08-31T09:56:09.907Z,26.37
2022-08-31T09:57:10.219Z,26.80
2022-08-31T09:58:13.850Z,27.10
2022-08-31T09:59:11.319Z,26.68
2022-08-31T10:00:11.155Z,27.15
2022-08-31T10:01:14.824Z,27.42
2022-08-31T10:02:12.582Z,27.12
2022-08-31T10:03:13.846Z,27.26
2022-08-31T10:04:13.632Z,27.22
2022-08-31T10:05:13.387Z,26.65
2022-08-31T10:06:13.747Z,26.92
2022-08-31T10:07:13.893Z,27.54
2022-08-31T10:08:19.354Z,27.85
2022-08-31T10:09:14.944Z,27.90
2022-08-31T10:10:28.346Z,28.33
2022-08-31T10:11:15.019Z,28.17
2022-08-31T10:12:14.330Z,27.78
2022-08-31T10:13:16.512Z,26.99
2022-08-31T10:14:16.806Z,27.00
2022-08-31T10:15:16.802Z,27.51
2022-08-31T10:16:17.116Z,28.29
2022-08-31T10:17:17.189Z,28.17
2022-08-31T10:18:15.875Z,27.92
2022-08-31T10:19:19.097Z,27.35
2022-08-31T10:20:18.309Z,26.34
2022-08-31T10:21:18.456Z,25.50
2022-08-31T10:22:18.626Z,24.54
2022-08-31T10:23:19.515Z,23.96
2022-08-31T10:24:21.482Z,23.68
2022-08-31T10:25:19.713Z,23.27
2022-08-31T10:26:18.169Z,22.98
2022-08-31T10:27:20.353Z,22.63
2022-08-31T10:28:21.278Z,22.69
2022-08-31T10:29:23.636Z,22.50
2022-08-31T10:30:21.142Z,22.60
2022-08-31T10:31:19.641Z,22.75
2022-08-31T10:32:20.779Z,23.43
2022-08-31T10:33:21.968Z,24.18
2022-08-31T10:34:23.593Z,24.48
2022-08-31T10:35:22.416Z,24.13
2022-08-31T10:36:23.074Z,23.51
2022-08-31T10:37:23.235Z,23.21
2022-08-31T10:38:23.424Z,22.96
2022-08-31T10:39:24.904Z,22.30
2022-08-31T10:40:22.285Z,21.96
2022-08-31T10:41:22.494Z,22.00
2022-08-31T10:42:22.741Z,22.14
2022-08-31T10:43:24.933Z,22.14
2022-08-31T10:44:26.216Z,22.53
2022-08-31T10:45:25.318Z,22.87
2022-08-31T10:46:26.088Z,23.69
2022-08-31T10:47:33.901Z,24.06
2022-08-31T10:48:27.368Z,25.03
2022-08-31T10:49:27.779Z,25.78
2022-08-31T10:50:25.113Z,26.22
2022-08-31T10:51:27.306Z,26.43
2022-08-31T10:52:27.499Z,26.10
2022-08-31T10:53:27.683Z,25.93
2022-08-31T10:54:27.041Z,25.54
2022-08-31T10:55:27.998Z,26.18
2022-08-31T10:56:28.691Z,26.19
2022-08-31T10:57:31.463Z,26.07
2022-08-31T10:58:29.266Z,26.16
2022-08-31T10:59:30.662Z,26.43
2022-08-31T11:00:27.876Z,26.70
2022-08-31T11:01:30.135Z,26.90
2022-08-31T11:02:28.372Z,27.54
2022-08-31T11:03:30.618Z,28.02
2022-08-31T11:04:32.032Z,28.15
2022-08-31T11:05:29.203Z,27.54
2022-08-31T11:06:31.397Z,27.22
2022-08-31T11:07:29.705Z,26.58
2022-08-31T11:08:31.865Z,26.59
2022-08-31T11:09:34.015Z,27.05
2022-08-31T11:10:30.486Z,26.95
2022-08-31T11:11:32.673Z,26.63
2022-08-31T11:12:31.055Z,26.58
2022-08-31T11:13:33.244Z,27.05
2022-08-31T11:14:34.597Z,27.35
2022-08-31T11:15:33.643Z,27.36
2022-08-31T11:16:33.786Z,27.67
2022-08-31T11:17:32.434Z,27.47
2022-08-31T11:18:34.619Z,26.26
2022-08-31T11:19:35.909Z,25.40
2022-08-31T11:20:33.242Z,25.73
2022-08-31T11:21:35.525Z,26.65
2022-08-31T11:22:33.850Z,27.58
2022-08-31T11:23:42.267Z,28.37
2022-08-31T11:24:37.456Z,28.54
2022-08-31T11:25:34.599Z,26.74
2022-08-31T11:26:36.788Z,25.75
2022-08-31T11:27:35.109Z,25.14
2022-08-31T11:28:37.292Z,24.80
2022-08-31T11:29:36.489Z,24.60
2022-08-31T11:30:40.002Z,23.96
2022-08-31T11:31:39.191Z,23.43
2022-08-31T11:32:36.469Z,23.34
2022-08-31T11:33:38.662Z,23.17
2022-08-31T11:34:40.804Z,23.13
2022-08-31T11:35:43.349Z,23.00
2022-08-31T11:36:38.509Z,22.75
2022-08-31T11:37:39.687Z,22.78
2022-08-31T11:38:39.877Z,23.05
2022-08-31T11:39:41.421Z,23.17
2022-08-31T11:40:38.837Z,23.71
2022-08-31T11:41:39.077Z,24.80
2022-08-31T11:42:41.278Z,24.74
2022-08-31T11:43:39.574Z,24.60
2022-08-31T11:44:43.250Z,24.55
2022-08-31T11:45:40.171Z,24.42
2022-08-31T11:46:40.436Z,24.13
2022-08-31T11:47:40.625Z,24.32
2022-08-31T11:48:42.819Z,25.59
2022-08-31T11:49:44.977Z,26.37
2022-08-31T11:50:41.438Z,26.65
2022-08-31T11:51:41.971Z,27.14
2022-08-31T11:52:43.860Z,27.20
2022-08-31T11:53:44.070Z,26.52
2022-08-31T11:54:44.252Z,25.48
2022-08-31T11:55:42.940Z,24.86
2022-08-31T11:56:45.118Z,24.24
2022-08-31T11:57:43.510Z,23.95
2022-08-31T11:58:45.723Z,24.16
2022-08-31T11:59:45.896Z,25.21
2022-08-31T12:00:44.344Z,25.87
2022-08-31T12:01:47.534Z,26.68
2022-08-31T12:02:44.935Z,27.39
2022-08-31T12:03:46.050Z,27.47
2022-08-31T12:04:45.494Z,27.58
2022-08-31T12:05:45.785Z,27.80
2022-08-31T12:06:46.016Z,28.05
2022-08-31T12:07:50.186Z,27.12
2022-08-31T12:08:46.582Z,26.22
2022-08-31T12:09:46.824Z,25.70
2022-08-31T12:10:50.977Z,25.31
2022-08-31T12:11:47.316Z,24.92
2022-08-31T12:12:48.538Z,24.63
2022-08-31T12:13:47.827Z,24.28
2022-08-31T12:14:49.060Z,23.68
2022-08-31T12:15:51.795Z,23.46
2022-08-31T12:16:49.639Z,23.86
2022-08-31T12:17:50.430Z,24.48
2022-08-31T12:18:50.220Z,25.77
2022-08-31T12:19:50.368Z,26.47
2022-08-31T12:20:51.852Z,27.22
2022-08-31T12:21:50.945Z,27.20
2022-08-31T12:22:53.411Z,27.37
2022-08-31T12:23:51.522Z,28.11
2022-08-31T12:24:52.915Z,28.30
2022-08-31T12:25:53.083Z,28.12
2022-08-31T12:26:52.525Z,27.45
2022-08-31T12:27:53.294Z,27.22
2022-08-31T12:28:52.114Z,27.63
2022-08-31T12:29:55.279Z,27.82
2022-08-31T12:30:54.504Z,28.04
2022-08-31T12:31:52.910Z,27.44
2022-08-31T12:32:57.084Z,27.26
2022-08-31T12:33:54.416Z,27.51
2022-08-31T12:34:55.575Z,27.74
2022-08-31T12:35:57.736Z,28.12
2022-08-31T12:36:54.313Z,27.89
2022-08-31T12:37:55.556Z,28.49
2022-08-31T12:38:54.858Z,28.64
2022-08-31T12:39:57.016Z,28.98
2022-08-31T12:40:55.407Z,29.38
2022-08-31T12:41:57.528Z,29.23
2022-08-31T12:42:59.689Z,29.10
2022-08-31T12:43:57.915Z,28.44
2022-08-31T12:44:57.619Z,28.47
2022-08-31T12:45:56.969Z,28.85
2022-08-31T12:46:57.198Z,29.27
2022-08-31T12:47:59.385Z,28.94
2022-08-31T12:48:59.578Z,28.19
2022-08-31T12:49:57.981Z,27.70
2022-08-31T12:50:58.221Z,26.99
2022-08-31T12:51:58.467Z,26.38
2022-08-31T12:53:00.513Z,26.06
2022-08-31T12:53:58.962Z,25.17
2022-08-31T12:55:01.796Z,24.96
2022-08-31T12:56:01.368Z,24.58
2022-08-31T12:57:01.564Z,24.21
2022-08-31T12:58:01.746Z,23.80
2022-08-31T12:59:02.443Z,23.74
2022-08-31T13:00:02.643Z,24.20
2022-08-31T13:01:07.219Z,24.88
2022-08-31T13:02:04.106Z,25.83
2022-08-31T13:03:03.709Z,26.29
2022-08-31T13:04:01.983Z,26.96
2022-08-31T13:05:04.257Z,27.83
2022-08-31T13:06:04.417Z,28.10
2022-08-31T13:07:04.611Z,27.89
2022-08-31T13:08:09.105Z,27.64